Search for airport 
image banner adimage banner adimage banner ad
image banner ad

38PA - Aerequus

Located in Solebury, United States

ICAO - 38PA, IATA -

Data provided by Airmate  

General information

Coordinates: N40°23'26" W75°0'54"
Elevation is 390 feet MSL.
Magnetic variation is -12° East
View others Airports in Pennsylvania

Operational data

Special qualification required
Current time UTC:
Current local time:
Weather at : KDYL - Doylestown ( 11 km )
METAR: KDYL 091254Z AUTO VRB04KT 10SM CLR 10/04 A3009 RMK AO2 SLP191 T01000039
View NOTAMs / SUP AIP / TFR affecting this airport [VIEW]
Communications frequencies: [VIEW]

Runways:

RWY identifierQFULength (ft)Width (ft)SurfaceLDA (ft)
051400100GRASS
231400100GRASS

Airport contact information

Address: Solebury United States

Satellite view of 38PA